This is the latest recevied weather packets stored in our database for station/object W0VI. If no packets are shown the sender has not sent any weather packets the latest 10 day(s).
| Time | Temp. | Humidity | Pressure | Rain* | Wind** | Luminosity | Snow |
|---|---|---|---|---|---|---|---|
| 1777941038 | 9.44° C | 43% | 1004.8 hPa | 0 mm | - | 29 W/m² | - |
| 1777940737 | 9.44° C | 43% | 1004.8 hPa | 0 mm | - | 30 W/m² | - |
| 1777940432 | 10° C | 43% | 1004.4 hPa | 0 mm | - | 35 W/m² | - |
| 1777940128 | 10° C | 43% | 1004.7 hPa | 0 mm | - | 48 W/m² | - |
| 1777939825 | 10° C | 44% | 1004.3 hPa | 0 mm | - | 55 W/m² | - |
| 1777939523 | 10.56° C | 43% | 1004.4 hPa | 0 mm | - | 46 W/m² | - |
| 1777939220 | 10.56° C | 44% | 1004.5 hPa | 0 mm | - | 64 W/m² | - |
| 1777938917 | 10.56° C | 43% | 1004.4 hPa | 0 mm | - | 131 W/m² | - |
| 1777938614 | 10.56° C | 43% | 1004.2 hPa | 0 mm | - | 86 W/m² | - |
| 1777938311 | 10.56° C | 42% | 1003.9 hPa | 0 mm | - | 89 W/m² | - |
| 1777938008 | 10.56° C | 42% | 1004 hPa | 0 mm | - | 96 W/m² | - |
| 1777937702 | 11.11° C | 41% | 1003.6 hPa | 0 mm | - | 111 W/m² | - |
| 1777937400 | 11.11° C | 41% | 1003.8 hPa | 0 mm | - | 126 W/m² | - |
| 1777937097 | 11.11° C | 40% | 1003.7 hPa | 0 mm | - | 87 W/m² | - |
| 1777936794 | 11.67° C | 39% | 1003.6 hPa | 0 mm | - | 121 W/m² | - |
| 1777936491 | 11.67° C | 40% | 1003.6 hPa | 0 mm | - | 150 W/m² | - |
| 1777936187 | 11.11° C | 41% | 1003.7 hPa | 0 mm | - | 205 W/m² | - |
| 1777935883 | 11.67° C | 41% | 1003.5 hPa | 0 mm | - | 130 W/m² | - |
| 1777935583 | 11.67° C | 41% | 1003.4 hPa | 0 mm | - | 136 W/m² | - |
| 1777935279 | 11.67° C | 41% | 1003.2 hPa | 0 mm | - | 117 W/m² | - |
| 1777934976 | 11.67° C | 41% | 1003.3 hPa | 0 mm | - | 256 W/m² | - |
| 1777934673 | 12.22° C | 40% | 1003.4 hPa | 0 mm | - | 149 W/m² | - |
| 1777934370 | 12.78° C | 40% | 1003.3 hPa | 0 mm | - | 207 W/m² | - |
| 1777934065 | 11.67° C | 40% | 1003.3 hPa | 0 mm | - | 395 W/m² | - |
| 1777933761 | 12.22° C | 41% | 1003.1 hPa | 0 mm | - | 159 W/m² | - |
* Rain latest hour (hover to see other rain measurements)
** Current wind speed in m/s (hover to see current wind gust speed)